Los Cabos International Airport
MMSD : rendu visible

Aérodrome :











RETROUVEZ-NOUS SUR...

 
LOGIN :

S'inscrire | Disclaimer

   EN    FR    IT 

 









Légende :    VFR   VFR Marginal   IFR   IFR Intensif   IFR Très Intensif
Visi : 
Plafond : 
>= 8 km
>= 3000ft
5 à 8 km
1000 à 3000 ft
1500m à 5 km
500 à 1000 ft
800 à 1500m
200 à 500 ft
< 800m
< 200 ft
Symboles :   Orages  Brouillard  Fortes neiges  Fortes précipitations  Vent > 20 kt






- Altitude de l'aérodrome : 374 ft
- Code IATA : SJD


MMSD - Los Cabos International

DERNIER METAR :
  • 111845Z 29007KT 7SM -RA BKN120 OVC200 21/17 A3001 RMK 8/027 LWR SC -RA B28 RTS

METARs EXPIRÉS :
  • 111800Z RTD 00000KT 8SM BKN150 OVC200 21/17 A3004 RMK SLP156 52017 943 8/077 PCPN NE
  • 111647Z 00000KT 8SM OVC120 23/16 A3003 RMK 8/02/ PCPN INTMNT

TAF TAF MMSD
Valide du 11 à 18h jusqu'au 12 à 18h UTC


111655Z 1118/1218 26008KT P6SM SCT030 BKN120
FM120400 30005KT P6SM SCT020 SCT120 BKN240



MET'MAP, la Météo Aéronautique d'un coup d'oeil ! - Copyright ORBIFLY Décembre 2007 - Disclaimer

ORBIFLY MET'MAP TEAM :

Programmation & Développement : Alexandra Zaïnal
Conception & Développement : Baudouin d'Aumeries
Co-Programmation & Développement : Marc-Olivier Méhu
Soutien technique & logistique : Manuel Goepfert

Contact : metmap@orbifly.com




SOURCES & CREDITS :

   NOAA       Earth
Advisory